Time;durP1;ratioP1;P1;durP2;ratioP2;P2;SDS_P1;SDS_P2;PMS_P1;PMS_P2;Temp;Humidity;BMP_temperature;BMP_pressure;BME280_temperature;BME280_humidity;BME280_pressure;Samples;Min_cycle;Max_cycle;Signal;HPM_P1;HPM_P2
2023/09/07 16:37:31;;;;;;;5.38;3.88;;;27.90;71.30;;;;;;5068869;28;20387;-61
2023/09/07 16:40:37;;;;;;;5.68;4.03;;;27.70;72.30;;;;;;5049047;28;20041;-61
2023/09/07 16:43:41;;;;;;;5.72;4.10;;;27.60;72.70;;;;;;5049108;28;20041;-59
2023/09/07 16:46:45;;;;;;;8.35;4.47;;;27.40;73.00;;;;;;5048932;28;20041;-60
2023/09/07 16:49:49;;;;;;;14.82;4.72;;;27.30;73.80;;;;;;5048792;28;20041;-60
2023/09/07 16:52:53;;;;;;;9.75;4.53;;;27.10;74.60;;;;;;5048582;28;20037;-60
2023/09/07 16:55:57;;;;;;;4.95;4.25;;;27.10;75.10;;;;;;5048659;28;20037;-60
2023/09/07 16:59:01;;;;;;;8.63;4.78;;;26.90;75.50;;;;;;5048755;28;20037;-61
2023/09/07 17:02:06;;;;;;;6.43;4.43;;;26.80;75.50;;;;;;5048160;28;20037;-59
2023/09/07 17:05:10;;;;;;;5.30;4.32;;;26.60;76.40;;;;;;5048691;28;20041;-59
2023/09/07 17:08:17;;;;;;;10.05;4.72;;;26.40;76.70;;;;;;5048357;28;20037;-61
2023/09/07 17:11:20;;;;;;;9.40;4.68;;;26.30;76.60;;;;;;5048351;28;20056;-59
2023/09/07 17:14:28;;;;;;;10.57;4.68;;;26.10;76.40;;;;;;5048396;28;20037;-59
2023/09/07 17:17:32;;;;;;;14.45;5.38;;;26.00;77.40;;;;;;5048063;28;20046;-60
2023/09/07 17:20:36;;;;;;;7.50;4.70;;;25.90;77.90;;;;;;5047791;28;20064;-60
2023/09/07 17:23:40;;;;;;;9.80;4.63;;;25.70;78.60;;;;;;5048298;28;20030;-60
2023/09/07 17:26:44;;;;;;;8.98;4.95;;;25.50;79.00;;;;;;5048403;28;20515;-60
2023/09/07 17:29:48;;;;;;;8.43;5.15;;;25.40;79.50;;;;;;5048080;28;20037;-60
2023/09/07 17:32:56;;;;;;;7.25;5.20;;;25.30;80.50;;;;;;5048113;28;20037;-60
2023/09/07 17:36:00;;;;;;;9.70;4.80;;;25.20;80.70;;;;;;5047999;28;20041;-59
2023/09/07 17:39:05;;;;;;;8.57;5.13;;;25.10;80.50;;;;;;5047167;28;20045;-59
2023/09/07 17:42:09;;;;;;;12.15;5.45;;;25.10;80.00;;;;;;5047905;28;20033;-60
2023/09/07 17:45:13;;;;;;;6.53;4.95;;;25.00;79.60;;;;;;5047882;28;20415;-59
2023/09/07 17:48:17;;;;;;;7.13;4.97;;;24.90;79.50;;;;;;5037916;28;20037;-59
2023/09/07 17:51:21;;;;;;;6.70;5.05;;;24.80;80.20;;;;;;5034208;28;20037;-60
2023/09/07 17:54:25;;;;;;;6.47;4.63;;;24.60;80.70;;;;;;5034440;28;20041;-60
2023/09/07 17:57:29;;;;;;;8.95;5.25;;;24.50;81.20;;;;;;5034242;28;20038;-60
2023/09/07 18:00:33;;;;;;;9.27;5.38;;;24.50;81.60;;;;;;5034133;28;20037;-60
2023/09/07 18:03:37;;;;;;;10.07;5.30;;;24.40;82.40;;;;;;5034347;28;20030;-60
2023/09/07 18:06:47;;;;;;;8.05;5.70;;;24.30;82.90;;;;;;5034332;28;20511;-59
2023/09/07 18:09:53;;;;;;;33.33;6.95;;;24.20;83.80;;;;;;5033965;28;20037;-59
2023/09/07 18:12:57;;;;;;;11.25;5.65;;;24.20;84.30;;;;;;5033924;28;20044;-61
2023/09/07 18:16:01;;;;;;;7.53;5.45;;;24.20;84.70;;;;;;5034023;28;20045;-61
2023/09/07 18:19:05;;;;;;;17.60;6.13;;;24.00;85.40;;;;;;5033912;28;20034;-60
2023/09/07 18:22:09;;;;;;;11.43;6.53;;;23.90;86.00;;;;;;5033844;28;20396;-61
2023/09/07 18:25:13;;;;;;;10.60;5.97;;;23.90;86.40;;;;;;5033815;28;20581;-60
2023/09/07 18:28:17;;;;;;;6.65;5.50;;;23.80;87.00;;;;;;5033832;28;20048;-61
2023/09/07 18:31:21;;;;;;;7.97;5.68;;;23.70;87.00;;;;;;5033205;28;20026;-60
2023/09/07 18:34:25;;;;;;;6.53;5.65;;;23.70;86.40;;;;;;5033795;28;20369;-60
2023/09/07 18:37:32;;;;;;;11.13;5.57;;;23.70;86.30;;;;;;5033235;28;20041;-60
2023/09/07 18:40:38;;;;;;;10.25;5.53;;;23.60;86.30;;;;;;5032779;28;20511;-59
2023/09/07 18:43:42;;;;;;;8.73;5.32;;;23.60;86.20;;;;;;5033485;28;20044;-60
2023/09/07 18:46:47;;;;;;;6.75;5.05;;;23.50;86.20;;;;;;5033460;28;20041;-60
2023/09/07 18:49:50;;;;;;;9.07;5.10;;;23.50;86.60;;;;;;5033336;28;20507;-59
2023/09/07 18:52:54;;;;;;;9.65;5.15;;;23.50;86.40;;;;;;5033343;28;20037;-60
2023/09/07 18:56:06;;;;;;;6.30;5.10;;;23.60;86.30;;;;;;5033402;28;20524;-59
2023/09/07 18:59:11;;;;;;;6.90;5.35;;;23.50;85.00;;;;;;5031546;28;20037;-59
2023/09/07 19:02:15;;;;;;;6.00;5.32;;;23.50;84.70;;;;;;5032954;28;20037;-61
2023/09/07 19:05:20;;;;;;;17.83;5.22;;;23.40;84.20;;;;;;5033230;28;20038;-60
2023/09/07 19:08:24;;;;;;;8.00;4.85;;;23.50;84.10;;;;;;5033026;28;20048;-60
2023/09/07 19:11:27;;;;;;;6.43;5.30;;;23.40;84.40;;;;;;5032996;28;20373;-59
2023/09/07 19:14:31;;;;;;;5.75;4.38;;;23.40;84.30;;;;;;5033084;28;20041;-59
2023/09/07 19:17:35;;;;;;;6.85;4.78;;;23.30;83.20;;;;;;5032476;28;20045;-57
2023/09/07 19:20:40;;;;;;;7.88;5.00;;;23.30;83.90;;;;;;5032842;28;20484;-60
2023/09/07 19:23:44;;;;;;;7.57;5.03;;;23.30;84.30;;;;;;5032648;28;20045;-61
2023/09/07 19:26:49;;;;;;;11.80;4.95;;;23.20;85.00;;;;;;5032819;28;20042;-60
2023/09/07 19:29:55;;;;;;;6.22;4.65;;;23.10;85.80;;;;;;5031841;28;20056;-61
2023/09/07 19:33:00;;;;;;;7.95;5.13;;;23.30;85.60;;;;;;5032364;28;20041;-61
2023/09/07 19:36:04;;;;;;;6.20;5.57;;;23.30;85.70;;;;;;5032463;28;20037;-60
2023/09/07 19:39:09;;;;;;;8.43;5.20;;;23.10;85.60;;;;;;5032527;28;20041;-60
2023/09/07 19:42:13;;;;;;;8.02;5.03;;;23.10;86.00;;;;;;5032508;28;20041;-60
2023/09/07 19:45:17;;;;;;;8.30;5.25;;;23.10;85.90;;;;;;5032504;28;20392;-58
2023/09/07 19:48:21;;;;;;;13.48;5.80;;;23.00;85.90;;;;;;5032293;28;20041;-60
2023/09/07 19:51:25;;;;;;;7.13;5.00;;;23.00;85.20;;;;;;5031775;28;20048;-59
2023/09/07 19:54:29;;;;;;;6.40;4.55;;;23.00;84.70;;;;;;5032160;28;20499;-59
2023/09/07 19:57:33;;;;;;;8.13;4.60;;;23.10;84.20;;;;;;5032091;28;20056;-58
2023/09/07 20:00:38;;;;;;;9.00;4.97;;;23.10;84.30;;;;;;5031002;28;20400;-60
2023/09/07 20:03:48;;;;;;;9.20;4.97;;;23.00;85.20;;;;;;5032218;28;20509;-59
2023/09/07 20:06:52;;;;;;;6.47;4.88;;;22.90;85.70;;;;;;5031983;28;20041;-61
2023/09/07 20:10:00;;;;;;;9.98;5.10;;;22.80;86.10;;;;;;5031133;28;20045;-60
2023/09/07 20:13:04;;;;;;;8.23;5.47;;;22.80;88.90;;;;;;5032037;28;20041;-60
2023/09/07 20:16:11;;;;;;;7.78;5.03;;;22.70;88.40;;;;;;5031891;28;20504;-61
2023/09/07 20:19:15;;;;;;;8.23;4.72;;;22.60;87.90;;;;;;5031521;28;20036;-59
2023/09/07 20:22:20;;;;;;;9.05;5.30;;;22.50;86.60;;;;;;5031888;28;20045;-60
2023/09/07 20:25:23;;;;;;;8.48;5.53;;;22.60;87.30;;;;;;5031541;28;20046;-60
2023/09/07 20:28:29;;;;;;;6.63;5.95;;;22.60;86.20;;;;;;5031779;28;20408;-59
2023/09/07 20:31:33;;;;;;;10.75;5.07;;;22.60;87.20;;;;;;5031442;28;20045;-60
2023/09/07 20:34:37;;;;;;;12.82;5.43;;;22.80;87.50;;;;;;5031679;28;20045;-60
2023/09/07 20:37:41;;;;;;;7.53;5.32;;;22.90;87.40;;;;;;5031354;28;20044;-59
2023/09/07 20:40:48;;;;;;;7.18;5.40;;;22.90;87.60;;;;;;5060760;22;20048;-52
2023/09/07 20:43:53;;;;;;;8.20;5.50;;;23.00;87.00;;;;;;5030785;28;20050;-51
2023/09/07 20:46:57;;;;;;;7.30;5.70;;;22.90;87.40;;;;;;5030885;28;20042;-53
2023/09/07 20:50:01;;;;;;;6.88;5.80;;;22.90;87.50;;;;;;5031249;28;20535;-54
2023/09/07 20:53:06;;;;;;;9.07;6.22;;;22.90;87.80;;;;;;5030668;28;20045;-51
2023/09/07 20:56:10;;;;;;;6.38;5.75;;;22.90;88.30;;;;;;5031330;28;20172;-51
2023/09/07 20:59:14;;;;;;;7.60;5.60;;;22.80;89.10;;;;;;5031132;28;20034;-52
2023/09/07 21:02:19;;;;;;;11.43;6.20;;;22.80;90.30;;;;;;5031272;28;20029;-52
2023/09/07 21:05:23;;;;;;;11.65;6.43;;;22.80;90.60;;;;;;5031860;28;20388;-51
2023/09/07 21:08:27;;;;;;;10.32;6.72;;;22.70;90.90;;;;;;5030484;28;20048;-51
2023/09/07 21:11:31;;;;;;;6.82;6.10;;;22.70;91.40;;;;;;5031267;28;20056;-52
2023/09/07 21:14:35;;;;;;;9.45;6.25;;;22.60;91.80;;;;;;5031291;28;20400;-53
2023/09/07 21:17:39;;;;;;;7.75;6.25;;;22.60;92.50;;;;;;5030957;28;20056;-51
2023/09/07 21:20:46;;;;;;;7.97;6.20;;;22.60;92.90;;;;;;5031163;28;20038;-52
2023/09/07 21:23:50;;;;;;;11.82;5.97;;;22.50;93.10;;;;;;5034196;28;20029;-53
2023/09/07 21:26:54;;;;;;;7.55;6.30;;;22.40;93.70;;;;;;5034837;28;20091;-52
2023/09/07 21:29:58;;;;;;;14.27;6.82;;;22.30;94.30;;;;;;5034750;28;20048;-51
2023/09/07 21:33:03;;;;;;;6.90;6.10;;;22.30;94.70;;;;;;5034900;28;20053;-52
2023/09/07 21:36:07;;;;;;;10.63;5.80;;;22.20;94.90;;;;;;5034875;28;20042;-52
2023/09/07 21:39:12;;;;;;;10.93;5.72;;;22.20;95.30;;;;;;5034750;28;20515;-52
2023/09/07 21:42:16;;;;;;;8.35;6.20;;;22.10;95.40;;;;;;5034627;28;20060;-51
2023/09/07 21:45:20;;;;;;;13.88;6.25;;;22.10;95.20;;;;;;5034958;28;20046;-51
2023/09/07 21:48:24;;;;;;;9.43;5.90;;;22.10;94.90;;;;;;5034935;28;20056;-51
2023/09/07 21:51:28;;;;;;;7.82;5.63;;;22.10;94.70;;;;;;5034234;28;20038;-55
2023/09/07 21:54:32;;;;;;;7.75;5.93;;;22.10;94.70;;;;;;5032077;28;20490;-53
2023/09/07 21:57:36;;;;;;;8.40;6.03;;;22.20;94.30;;;;;;5034068;28;20041;-54
2023/09/07 22:00:40;;;;;;;9.02;5.35;;;22.40;94.30;;;;;;5034046;28;20045;-51
2023/09/07 22:03:45;;;;;;;8.73;5.15;;;22.50;94.20;;;;;;5033815;28;20540;-54
2023/09/07 22:06:49;;;;;;;8.75;5.38;;;22.70;93.40;;;;;;5010857;28;20558;-55
2023/09/07 22:09:53;;;;;;;7.13;5.28;;;22.80;93.30;;;;;;5034038;28;20037;-51
2023/09/07 22:12:58;;;;;;;10.75;5.40;;;22.90;93.00;;;;;;5034147;28;20050;-55
2023/09/07 22:16:03;;;;;;;11.05;5.07;;;22.90;93.20;;;;;;5033961;28;20048;-55
2023/09/07 22:19:07;;;;;;;7.80;4.97;;;22.80;93.30;;;;;;5034021;28;20049;-51
2023/09/07 22:22:14;;;;;;;10.60;5.45;;;22.80;93.10;;;;;;5033687;28;20544;-51
2023/09/07 22:25:18;;;;;;;12.00;5.80;;;22.80;92.90;;;;;;5034039;28;20044;-52
2023/09/07 22:28:22;;;;;;;6.13;5.22;;;22.50;93.30;;;;;;5033716;28;20403;-53
2023/09/07 22:31:26;;;;;;;9.52;5.95;;;22.00;94.40;;;;;;5032948;28;20042;-52
2023/09/07 22:34:33;;;;;;;7.43;5.55;;;21.80;96.10;;;;;;5033437;28;20105;-55
2023/09/07 22:37:37;;;;;;;8.32;5.85;;;21.80;96.00;;;;;;5033442;28;20459;-51
2023/09/07 22:40:41;;;;;;;9.73;6.00;;;21.70;96.50;;;;;;5033018;28;20041;-51
2023/09/07 22:43:46;;;;;;;8.10;5.68;;;21.70;97.00;;;;;;5033717;28;20381;-51
2023/09/07 22:46:50;;;;;;;8.35;5.70;;;21.70;97.40;;;;;;5033549;28;20064;-53
2023/09/07 22:49:54;;;;;;;11.40;5.20;;;21.80;97.40;;;;;;5033213;28;20049;-54
2023/09/07 22:52:58;;;;;;;8.55;5.85;;;21.70;97.50;;;;;;5033394;28;20052;-53
2023/09/07 22:56:02;;;;;;;8.80;5.93;;;21.50;98.00;;;;;;5033459;28;20033;-53
2023/09/07 22:59:07;;;;;;;9.35;6.13;;;21.40;98.60;;;;;;5033176;28;20060;-51
2023/09/07 23:02:11;;;;;;;11.80;6.13;;;21.30;99.20;;;;;;5033158;28;20037;-53
2023/09/07 23:05:15;;;;;;;12.88;5.80;;;21.10;99.60;;;;;;5033183;28;20041;-52
2023/09/07 23:08:19;;;;;;;9.65;5.82;;;21.00;99.90;;;;;;5033088;28;20049;-51
2023/09/07 23:11:23;;;;;;;9.15;6.13;;;20.80;99.90;;;;;;5032918;28;20065;-53
2023/09/07 23:14:27;;;;;;;8.23;6.18;;;21.20;99.90;;;;;;5032595;28;20056;-52
2023/09/07 23:17:31;;;;;;;7.60;5.78;;;21.20;99.90;;;;;;5032909;28;20046;-51
2023/09/07 23:20:36;;;;;;;12.88;5.95;;;21.10;99.90;;;;;;5032598;28;20041;-54
2023/09/07 23:23:41;;;;;;;7.47;5.65;;;21.00;99.90;;;;;;5032660;28;20048;-53
2023/09/07 23:26:46;;;;;;;8.07;5.78;;;21.00;99.90;;;;;;5032740;28;20044;-52
2023/09/07 23:29:50;;;;;;;8.68;6.00;;;20.80;99.90;;;;;;5032575;28;20538;-53
2023/09/07 23:32:55;;;;;;;10.40;6.20;;;20.70;99.90;;;;;;5032421;28;20057;-54
2023/09/07 23:35:59;;;;;;;13.23;6.43;;;20.60;99.90;;;;;;5032823;28;20045;-54
2023/09/07 23:39:04;;;;;;;10.10;6.13;;;20.50;99.90;;;;;;5032395;28;20113;-53
2023/09/07 23:42:09;;;;;;;8.70;6.55;;;20.40;99.90;;;;;;5032431;28;20105;-52
2023/09/07 23:45:13;;;;;;;10.43;5.90;;;20.40;99.90;;;;;;5031959;28;20041;-51
2023/09/07 23:48:17;;;;;;;7.13;6.10;;;20.30;99.90;;;;;;5032367;28;20407;-51
2023/09/07 23:51:22;;;;;;;10.90;5.95;;;20.30;99.90;;;;;;5032216;28;20053;-51
2023/09/07 23:54:26;;;;;;;10.15;5.80;;;20.30;99.90;;;;;;5032217;28;20044;-53
2023/09/07 23:57:30;;;;;;;9.10;5.68;;;20.30;99.90;;;;;;5032089;28;20048;-53
